D/T METAR WX W/DIR W/SPE G/SPE TEMP DEWP
23/05/19 14:20 EGJB 231320Z 29009KT 9999 FEW003 14/09 Q1018 WNW (290°) 10.4mph 14°C 9°C
23/05/19 13:50 EGJB 231250Z 27009KT 9999 FEW003 15/10 Q1018 W (270°) 10.4mph 15°C 10°C
23/05/19 12:50 EGJB 231150Z 27009KT 9999 FEW002 13/08 Q1018 W (270°) 10.4mph 13°C 8°C
23/05/19 12:20 EGJB 231120Z 27008KT 9999 FEW002 13/08 Q1018 W (270°) 9.2mph 13°C 8°C
23/05/19 11:50 EGJB 231050Z 27008KT 9999 FEW002 14/08 Q1018 W (270°) 9.2mph 14°C 8°C
23/05/19 10:50 EGJB 230950Z 27008KT 9999 FEW001 13/10 Q1018 W (270°) 9.2mph 13°C 10°C
23/05/19 10:20 EGJB 230920Z 28006KT 6000 0700NW R27/1300 BCFG SCT000 12/11 Q1018 BCFG W (280°) 6.9mph 12°C 11°C
23/05/19 09:20 EGJB 230820Z 28007KT 250V320 9999 FEW001 14/09 Q1018 W (280°) 8.1mph 14°C 9°C
23/05/19 08:50 EGJB 230750Z 30007KT 9999 FEW002 14/10 Q1018 WNW (300°) 8.1mph 14°C 10°C
23/05/19 08:20 EGJB 230720Z 30007KT 9999 FEW002 13/10 Q1017 WNW (300°) 8.1mph 13°C 10°C
23/05/19 07:50 EGJB 230650Z 30010KT CAVOK 13/10 Q1017 WNW (300°) 11.5mph 13°C 10°C
23/05/19 07:20 EGJB 230620Z 29008KT CAVOK 13/10 Q1017 WNW (290°) 9.2mph 13°C 10°C
23/05/19 06:50 EGJB 230550Z 30006KT CAVOK 13/09 Q1017 WNW (300°) 6.9mph 13°C 9°C
23/05/19 06:20 EGJB 230520Z 28006KT CAVOK 11/09 Q1017 W (280°) 6.9mph 11°C 9°C
23/05/19 05:50 EGJB 230450Z 25005KT CAVOK 10/09 Q1017 WSW (250°) 5.8mph 10°C 9°C
23/05/19 05:20 EGJB 230420Z 21005KT CAVOK 11/09 Q1017 SSW (210°) 5.8mph 11°C 9°C
23/05/19 04:20 EGJB 230320Z 16005KT CAVOK 11/09 Q1017 SSE (160°) 5.8mph 11°C 9°C
23/05/19 03:50 EGJB 230250Z 15006KT CAVOK 12/09 Q1017 SSE (150°) 6.9mph 12°C 9°C
23/05/19 02:50 EGJB 230150Z 13006KT CAVOK 13/08 Q1017 SE (130°) 6.9mph 13°C 8°C
23/05/19 01:50 EGJB 230050Z 13004KT CAVOK 13/07 Q1018 SE (130°) 4.6mph 13°C 7°C
23/05/19 00:50 EGJB 222350Z 09004KT CAVOK 12/07 Q1018 E (90°) 4.6mph 12°C 7°C
22/05/19 23:50 EGJB 222250Z 09005KT CAVOK 12/07 Q1019 E (90°) 5.8mph 12°C 7°C
22/05/19 22:50 EGJB 222150Z 07005KT CAVOK 13/06 Q1019 ENE (70°) 5.8mph 13°C 6°C
22/05/19 21:50 EGJB 222050Z 05005KT CAVOK 12/07 Q1019 NE (50°) 5.8mph 12°C 7°C
22/05/19 20:50 EGJB 221950Z 06004KT CAVOK 14/06 Q1019 ENE (60°) 4.6mph 14°C 6°C
22/05/19 20:20 EGJB 221920Z 07003KT CAVOK 15/06 Q1019 ENE (70°) 3.5mph 15°C 6°C
22/05/19 19:50 EGJB 221850Z 09005KT CAVOK 16/06 Q1019 E (90°) 5.8mph 16°C 6°C
22/05/19 19:20 EGJB 221820Z 10006KT CAVOK 17/06 Q1019 E (100°) 6.9mph 17°C 6°C
22/05/19 18:50 EGJB 221750Z 10006KT CAVOK 17/06 Q1019 E (100°) 6.9mph 17°C 6°C
22/05/19 18:20 EGJB 221720Z 09006KT CAVOK 18/07 Q1019 E (90°) 6.9mph 18°C 7°C
22/05/19 17:50 EGJB 221650Z 09005KT CAVOK 19/06 Q1019 E (90°) 5.8mph 19°C 6°C
22/05/19 17:20 EGJB 221620Z 12005KT 070V160 CAVOK 19/06 Q1019 ESE (120°) 5.8mph 19°C 6°C
22/05/19 16:50 EGJB 221550Z 13007KT CAVOK 18/03 Q1020 SE (130°) 8.1mph 18°C 3°C
22/05/19 16:20 EGJB 221520Z 13006KT 110V170 CAVOK 19/03 Q1020 SE (130°) 6.9mph 19°C 3°C
22/05/19 15:50 EGJB 221450Z 13005KT 080V160 CAVOK 18/04 Q1020 SE (130°) 5.8mph 18°C 4°C
22/05/19 15:20 EGJB 221420Z 14006KT 090V170 CAVOK 18/05 Q1020 SE (140°) 6.9mph 18°C 5°C
22/05/19 14:50 EGJB 221350Z 14007KT CAVOK 18/04 Q1020 SE (140°) 8.1mph 18°C 4°C
22/05/19 14:20 EGJB 221320Z 14007KT CAVOK 18/04 Q1021 SE (140°) 8.1mph 18°C 4°C
22/05/19 13:50 EGJB 221250Z 15007KT 120V190 CAVOK 18/03 Q1021 SSE (150°) 8.1mph 18°C 3°C
22/05/19 13:20 EGJB 221220Z 17007KT CAVOK 18/05 Q1021 S (170°) 8.1mph 18°C 5°C
22/05/19 12:50 EGJB 221150Z VRB03KT CAVOK 19/07 Q1021 N (0°) 3.5mph 19°C 7°C
22/05/19 12:20 EGJB 221120Z VRB03KT CAVOK 18/06 Q1021 N (0°) 3.5mph 18°C 6°C
22/05/19 11:50 EGJB 221050Z VRB02KT CAVOK 17/06 Q1021 N (0°) 2.3mph 17°C 6°C
22/05/19 11:20 EGJB 221020Z VRB03KT CAVOK 16/06 Q1021 N (0°) 3.5mph 16°C 6°C
22/05/19 10:50 EGJB 220950Z 20004KT CAVOK 16/06 Q1021 SSW (200°) 4.6mph 16°C 6°C
22/05/19 10:20 EGJB 220920Z VRB03KT CAVOK 16/07 Q1021 N (0°) 3.5mph 16°C 7°C
22/05/19 09:50 EGJB 220850Z 21004KT 180V240 CAVOK 15/07 Q1021 SSW (210°) 4.6mph 15°C 7°C
22/05/19 09:20 EGJB 220820Z 19004KT 170V240 9999 FEW003 15/09 Q1021 S (190°) 4.6mph 15°C 9°C